sensor_id;sensor_type;location;lat;lon;timestamp;temperature;humidity
17452;DHT22;8843;48.838;9.324;2023-05-29T00:01:53;20.50;61.40
17452;DHT22;8843;48.838;9.324;2023-05-29T00:04:21;20.50;61.30
17452;DHT22;8843;48.838;9.324;2023-05-29T00:06:48;20.50;61.30
17452;DHT22;8843;48.838;9.324;2023-05-29T00:09:16;20.50;62.20
17452;DHT22;8843;48.838;9.324;2023-05-29T00:11:43;20.50;61.30
17452;DHT22;8843;48.838;9.324;2023-05-29T00:14:10;20.50;61.40
17452;DHT22;8843;48.838;9.324;2023-05-29T00:16:39;20.50;61.40
17452;DHT22;8843;48.838;9.324;2023-05-29T00:19:06;20.50;61.40
17452;DHT22;8843;48.838;9.324;2023-05-29T00:21:35;20.40;61.60
17452;DHT22;8843;48.838;9.324;2023-05-29T00:24:02;20.40;61.50
17452;DHT22;8843;48.838;9.324;2023-05-29T00:26:29;20.40;61.40
17452;DHT22;8843;48.838;9.324;2023-05-29T00:28:56;20.40;61.50
17452;DHT22;8843;48.838;9.324;2023-05-29T00:31:23;20.40;61.40
17452;DHT22;8843;48.838;9.324;2023-05-29T00:33:50;20.40;62.20
17452;DHT22;8843;48.838;9.324;2023-05-29T00:36:17;20.40;61.40
17452;DHT22;8843;48.838;9.324;2023-05-29T00:38:45;20.40;61.40
17452;DHT22;8843;48.838;9.324;2023-05-29T00:41:14;20.40;61.50
17452;DHT22;8843;48.838;9.324;2023-05-29T00:43:41;20.40;61.50
17452;DHT22;8843;48.838;9.324;2023-05-29T00:46:09;20.40;61.50
17452;DHT22;8843;48.838;9.324;2023-05-29T00:48:38;20.40;61.50
17452;DHT22;8843;48.838;9.324;2023-05-29T00:51:07;20.40;61.50
17452;DHT22;8843;48.838;9.324;2023-05-29T00:53:35;20.30;61.60
17452;DHT22;8843;48.838;9.324;2023-05-29T00:56:04;20.30;61.50
17452;DHT22;8843;48.838;9.324;2023-05-29T00:58:31;20.30;61.50
17452;DHT22;8843;48.838;9.324;2023-05-29T01:00:58;20.30;61.50
17452;DHT22;8843;48.838;9.324;2023-05-29T01:03:26;20.30;61.50
17452;DHT22;8843;48.838;9.324;2023-05-29T01:05:53;20.30;61.50
17452;DHT22;8843;48.838;9.324;2023-05-29T01:08:21;20.30;61.50
17452;DHT22;8843;48.838;9.324;2023-05-29T01:10:50;20.30;61.60
17452;DHT22;8843;48.838;9.324;2023-05-29T01:13:23;20.30;62.30
17452;DHT22;8843;48.838;9.324;2023-05-29T01:15:57;20.30;61.60
17452;DHT22;8843;48.838;9.324;2023-05-29T01:18:34;20.30;61.60
17452;DHT22;8843;48.838;9.324;2023-05-29T01:21:09;20.20;61.50
17452;DHT22;8843;48.838;9.324;2023-05-29T01:23:56;20.20;61.50
17452;DHT22;8843;48.838;9.324;2023-05-29T01:26:48;20.20;61.50
17452;DHT22;8843;48.838;9.324;2023-05-29T01:29:19;20.20;61.60
17452;DHT22;8843;48.838;9.324;2023-05-29T01:31:50;20.20;61.50
17452;DHT22;8843;48.838;9.324;2023-05-29T01:34:18;20.20;61.60
17452;DHT22;8843;48.838;9.324;2023-05-29T01:36:45;20.20;61.60
17452;DHT22;8843;48.838;9.324;2023-05-29T01:39:13;20.20;61.70
17452;DHT22;8843;48.838;9.324;2023-05-29T01:41:41;20.20;61.60
17452;DHT22;8843;48.838;9.324;2023-05-29T01:44:10;20.20;61.70
17452;DHT22;8843;48.838;9.324;2023-05-29T01:46:38;20.10;61.50
17452;DHT22;8843;48.838;9.324;2023-05-29T01:49:06;20.10;61.50
17452;DHT22;8843;48.838;9.324;2023-05-29T01:51:33;20.10;61.60
17452;DHT22;8843;48.838;9.324;2023-05-29T01:54:01;20.10;61.50
17452;DHT22;8843;48.838;9.324;2023-05-29T01:56:28;20.10;61.50
17452;DHT22;8843;48.838;9.324;2023-05-29T01:58:57;20.10;61.50
17452;DHT22;8843;48.838;9.324;2023-05-29T02:01:25;20.10;62.30
17452;DHT22;8843;48.838;9.324;2023-05-29T02:03:52;20.10;61.60
17452;DHT22;8843;48.838;9.324;2023-05-29T02:06:19;20.10;61.50
17452;DHT22;8843;48.838;9.324;2023-05-29T02:08:46;20.10;61.60
17452;DHT22;8843;48.838;9.324;2023-05-29T02:11:13;20.00;61.60
17452;DHT22;8843;48.838;9.324;2023-05-29T02:13:41;20.00;61.60
17452;DHT22;8843;48.838;9.324;2023-05-29T02:16:08;20.00;61.50
17452;DHT22;8843;48.838;9.324;2023-05-29T02:18:36;20.00;61.60
17452;DHT22;8843;48.838;9.324;2023-05-29T02:21:03;20.00;61.60
17452;DHT22;8843;48.838;9.324;2023-05-29T02:23:30;20.00;61.60
17452;DHT22;8843;48.838;9.324;2023-05-29T02:25:57;20.00;61.60
17452;DHT22;8843;48.838;9.324;2023-05-29T02:28:24;20.00;61.60
17452;DHT22;8843;48.838;9.324;2023-05-29T02:30:51;20.00;61.70
17452;DHT22;8843;48.838;9.324;2023-05-29T02:33:18;20.00;61.80
17452;DHT22;8843;48.838;9.324;2023-05-29T02:35:46;20.00;61.80
17452;DHT22;8843;48.838;9.324;2023-05-29T02:38:13;20.00;61.80
17452;DHT22;8843;48.838;9.324;2023-05-29T02:40:40;19.90;61.70
17452;DHT22;8843;48.838;9.324;2023-05-29T02:43:08;19.90;61.70
17452;DHT22;8843;48.838;9.324;2023-05-29T02:45:35;20.00;61.80
17452;DHT22;8843;48.838;9.324;2023-05-29T02:48:02;19.90;61.70
17452;DHT22;8843;48.838;9.324;2023-05-29T02:50:29;19.90;61.70
17452;DHT22;8843;48.838;9.324;2023-05-29T02:52:57;19.90;61.90
17452;DHT22;8843;48.838;9.324;2023-05-29T02:55:25;19.90;61.80
17452;DHT22;8843;48.838;9.324;2023-05-29T02:57:51;19.90;61.80
17452;DHT22;8843;48.838;9.324;2023-05-29T03:00:20;19.90;62.60
17452;DHT22;8843;48.838;9.324;2023-05-29T03:02:47;19.90;61.90
17452;DHT22;8843;48.838;9.324;2023-05-29T03:05:14;19.80;61.70
17452;DHT22;8843;48.838;9.324;2023-05-29T03:07:42;19.90;61.80
17452;DHT22;8843;48.838;9.324;2023-05-29T03:10:10;19.80;61.70
17452;DHT22;8843;48.838;9.324;2023-05-29T03:12:37;19.80;61.90
17452;DHT22;8843;48.838;9.324;2023-05-29T03:15:05;19.80;62.70
17452;DHT22;8843;48.838;9.324;2023-05-29T03:17:33;19.80;61.90
17452;DHT22;8843;48.838;9.324;2023-05-29T03:20:02;19.80;61.90
17452;DHT22;8843;48.838;9.324;2023-05-29T03:22:31;19.80;61.90
17452;DHT22;8843;48.838;9.324;2023-05-29T03:24:58;19.80;61.90
17452;DHT22;8843;48.838;9.324;2023-05-29T03:27:26;19.80;61.90
17452;DHT22;8843;48.838;9.324;2023-05-29T03:29:54;19.80;62.60
17452;DHT22;8843;48.838;9.324;2023-05-29T03:32:21;19.80;62.60
17452;DHT22;8843;48.838;9.324;2023-05-29T03:34:48;19.80;61.90
17452;DHT22;8843;48.838;9.324;2023-05-29T03:37:15;19.70;61.80
17452;DHT22;8843;48.838;9.324;2023-05-29T03:39:42;19.70;61.80
17452;DHT22;8843;48.838;9.324;2023-05-29T03:42:09;19.70;61.80
17452;DHT22;8843;48.838;9.324;2023-05-29T03:44:37;19.70;61.80
17452;DHT22;8843;48.838;9.324;2023-05-29T03:47:04;19.70;61.80
17452;DHT22;8843;48.838;9.324;2023-05-29T03:49:31;19.70;61.80
17452;DHT22;8843;48.838;9.324;2023-05-29T03:51:58;19.70;61.80
17452;DHT22;8843;48.838;9.324;2023-05-29T03:54:25;19.70;61.90
17452;DHT22;8843;48.838;9.324;2023-05-29T03:56:52;19.70;62.70
17452;DHT22;8843;48.838;9.324;2023-05-29T03:59:19;19.70;61.90
17452;DHT22;8843;48.838;9.324;2023-05-29T04:01:47;19.70;61.80
17452;DHT22;8843;48.838;9.324;2023-05-29T04:04:14;19.70;61.90
17452;DHT22;8843;48.838;9.324;2023-05-29T04:06:40;19.60;61.90
17452;DHT22;8843;48.838;9.324;2023-05-29T04:09:07;19.60;61.80
17452;DHT22;8843;48.838;9.324;2023-05-29T04:11:34;19.60;61.80
17452;DHT22;8843;48.838;9.324;2023-05-29T04:14:01;19.60;61.80
17452;DHT22;8843;48.838;9.324;2023-05-29T04:16:28;19.60;62.60
17452;DHT22;8843;48.838;9.324;2023-05-29T04:18:57;19.60;61.90
17452;DHT22;8843;48.838;9.324;2023-05-29T04:21:24;19.60;61.80
17452;DHT22;8843;48.838;9.324;2023-05-29T04:23:51;19.60;61.80
17452;DHT22;8843;48.838;9.324;2023-05-29T04:26:20;19.60;61.80
17452;DHT22;8843;48.838;9.324;2023-05-29T04:28:51;19.60;61.90
17452;DHT22;8843;48.838;9.324;2023-05-29T04:31:22;19.60;61.90
17452;DHT22;8843;48.838;9.324;2023-05-29T04:33:51;19.60;61.90
17452;DHT22;8843;48.838;9.324;2023-05-29T04:36:22;19.60;62.00
17452;DHT22;8843;48.838;9.324;2023-05-29T04:38:51;19.60;61.90
17452;DHT22;8843;48.838;9.324;2023-05-29T04:41:18;19.50;61.90
17452;DHT22;8843;48.838;9.324;2023-05-29T04:43:49;19.50;61.80
17452;DHT22;8843;48.838;9.324;2023-05-29T04:46:16;19.50;61.90
17452;DHT22;8843;48.838;9.324;2023-05-29T04:48:43;19.60;61.90
17452;DHT22;8843;48.838;9.324;2023-05-29T04:51:10;19.50;61.80
17452;DHT22;8843;48.838;9.324;2023-05-29T04:53:39;19.50;61.80
17452;DHT22;8843;48.838;9.324;2023-05-29T04:56:06;19.50;61.90
17452;DHT22;8843;48.838;9.324;2023-05-29T04:58:33;19.50;61.70
17452;DHT22;8843;48.838;9.324;2023-05-29T05:01:00;19.50;61.90
17452;DHT22;8843;48.838;9.324;2023-05-29T05:03:28;19.50;61.90
17452;DHT22;8843;48.838;9.324;2023-05-29T05:05:56;19.50;62.60
17452;DHT22;8843;48.838;9.324;2023-05-29T05:08:23;19.50;61.90
17452;DHT22;8843;48.838;9.324;2023-05-29T05:10:51;19.50;62.10
17452;DHT22;8843;48.838;9.324;2023-05-29T05:13:18;19.50;62.10
17452;DHT22;8843;48.838;9.324;2023-05-29T05:15:45;19.50;62.10
17452;DHT22;8843;48.838;9.324;2023-05-29T05:18:12;19.50;62.10
17452;DHT22;8843;48.838;9.324;2023-05-29T05:20:39;19.50;62.10
17452;DHT22;8843;48.838;9.324;2023-05-29T05:23:06;19.50;62.20
17452;DHT22;8843;48.838;9.324;2023-05-29T05:25:33;19.50;62.30
17452;DHT22;8843;48.838;9.324;2023-05-29T05:28:02;19.40;62.20
17452;DHT22;8843;48.838;9.324;2023-05-29T05:30:29;19.40;62.30
17452;DHT22;8843;48.838;9.324;2023-05-29T05:32:56;19.50;62.40
17452;DHT22;8843;48.838;9.324;2023-05-29T05:35:23;19.50;62.50
17452;DHT22;8843;48.838;9.324;2023-05-29T05:37:50;19.50;62.50
17452;DHT22;8843;48.838;9.324;2023-05-29T05:40:18;19.50;62.60
17452;DHT22;8843;48.838;9.324;2023-05-29T05:42:45;19.50;62.70
17452;DHT22;8843;48.838;9.324;2023-05-29T05:45:14;19.40;62.60
17452;DHT22;8843;48.838;9.324;2023-05-29T05:47:40;19.50;62.70
17452;DHT22;8843;48.838;9.324;2023-05-29T05:50:08;19.50;62.80
17452;DHT22;8843;48.838;9.324;2023-05-29T05:52:35;19.40;62.70
17452;DHT22;8843;48.838;9.324;2023-05-29T05:55:02;19.40;62.80
17452;DHT22;8843;48.838;9.324;2023-05-29T05:57:29;19.40;62.80
17452;DHT22;8843;48.838;9.324;2023-05-29T05:59:58;19.40;62.80
17452;DHT22;8843;48.838;9.324;2023-05-29T06:02:26;19.40;62.80
17452;DHT22;8843;48.838;9.324;2023-05-29T06:04:53;19.40;62.90
17452;DHT22;8843;48.838;9.324;2023-05-29T06:07:20;19.40;63.60
17452;DHT22;8843;48.838;9.324;2023-05-29T06:09:47;19.40;63.60
17452;DHT22;8843;48.838;9.324;2023-05-29T06:12:14;19.40;62.90
17452;DHT22;8843;48.838;9.324;2023-05-29T06:14:41;19.40;62.90
17452;DHT22;8843;48.838;9.324;2023-05-29T06:17:08;19.40;62.90
17452;DHT22;8843;48.838;9.324;2023-05-29T06:19:36;19.40;63.70
17452;DHT22;8843;48.838;9.324;2023-05-29T06:22:03;19.40;63.00
17452;DHT22;8843;48.838;9.324;2023-05-29T06:24:30;19.40;63.10
17452;DHT22;8843;48.838;9.324;2023-05-29T06:26:57;19.40;63.10
17452;DHT22;8843;48.838;9.324;2023-05-29T06:29:24;19.40;63.00
17452;DHT22;8843;48.838;9.324;2023-05-29T06:31:51;19.40;63.10
17452;DHT22;8843;48.838;9.324;2023-05-29T06:34:18;19.40;63.20
17452;DHT22;8843;48.838;9.324;2023-05-29T06:36:46;19.40;63.20
17452;DHT22;8843;48.838;9.324;2023-05-29T06:39:13;19.40;63.20
17452;DHT22;8843;48.838;9.324;2023-05-29T06:41:40;19.40;63.30
17452;DHT22;8843;48.838;9.324;2023-05-29T06:44:07;19.40;63.20
17452;DHT22;8843;48.838;9.324;2023-05-29T06:46:34;19.40;63.30
17452;DHT22;8843;48.838;9.324;2023-05-29T06:49:01;19.40;64.10
17452;DHT22;8843;48.838;9.324;2023-05-29T06:51:28;19.30;63.40
17452;DHT22;8843;48.838;9.324;2023-05-29T06:53:56;19.40;63.60
17452;DHT22;8843;48.838;9.324;2023-05-29T06:56:23;19.40;63.50
17452;DHT22;8843;48.838;9.324;2023-05-29T06:58:51;19.40;63.60
17452;DHT22;8843;48.838;9.324;2023-05-29T07:01:18;19.40;63.50
17452;DHT22;8843;48.838;9.324;2023-05-29T07:03:46;19.30;63.60
17452;DHT22;8843;48.838;9.324;2023-05-29T07:06:13;19.30;63.60
17452;DHT22;8843;48.838;9.324;2023-05-29T07:08:40;19.40;63.60
17452;DHT22;8843;48.838;9.324;2023-05-29T07:11:09;19.40;63.70
17452;DHT22;8843;48.838;9.324;2023-05-29T07:13:36;19.30;63.70
17452;DHT22;8843;48.838;9.324;2023-05-29T07:16:02;19.30;64.60
17452;DHT22;8843;48.838;9.324;2023-05-29T07:18:29;19.30;63.70
17452;DHT22;8843;48.838;9.324;2023-05-29T07:20:56;19.40;63.90
17452;DHT22;8843;48.838;9.324;2023-05-29T07:23:24;19.40;63.90
17452;DHT22;8843;48.838;9.324;2023-05-29T07:25:51;19.40;63.50
17452;DHT22;8843;48.838;9.324;2023-05-29T07:28:19;19.40;63.90
17452;DHT22;8843;48.838;9.324;2023-05-29T07:30:46;19.40;64.00
17452;DHT22;8843;48.838;9.324;2023-05-29T07:33:13;19.40;63.90
17452;DHT22;8843;48.838;9.324;2023-05-29T07:35:40;19.40;64.20
17452;DHT22;8843;48.838;9.324;2023-05-29T07:38:07;19.40;64.30
17452;DHT22;8843;48.838;9.324;2023-05-29T07:40:34;19.40;64.20
17452;DHT22;8843;48.838;9.324;2023-05-29T07:43:00;19.40;64.10
17452;DHT22;8843;48.838;9.324;2023-05-29T07:45:29;19.40;64.10
17452;DHT22;8843;48.838;9.324;2023-05-29T07:47:55;19.40;63.90
17452;DHT22;8843;48.838;9.324;2023-05-29T07:50:22;19.40;64.00
17452;DHT22;8843;48.838;9.324;2023-05-29T07:52:49;19.40;64.10
17452;DHT22;8843;48.838;9.324;2023-05-29T07:55:16;19.40;64.00
17452;DHT22;8843;48.838;9.324;2023-05-29T07:57:43;19.50;64.40
17452;DHT22;8843;48.838;9.324;2023-05-29T08:00:11;19.50;64.40
17452;DHT22;8843;48.838;9.324;2023-05-29T08:02:40;19.50;64.90
17452;DHT22;8843;48.838;9.324;2023-05-29T08:05:08;19.50;64.60
17452;DHT22;8843;48.838;9.324;2023-05-29T08:07:36;19.60;64.70
17452;DHT22;8843;48.838;9.324;2023-05-29T08:10:03;19.60;64.50
17452;DHT22;8843;48.838;9.324;2023-05-29T08:12:30;19.60;64.70
17452;DHT22;8843;48.838;9.324;2023-05-29T08:14:59;19.60;65.30
17452;DHT22;8843;48.838;9.324;2023-05-29T08:17:26;19.70;65.70
17452;DHT22;8843;48.838;9.324;2023-05-29T08:19:55;19.60;64.60
17452;DHT22;8843;48.838;9.324;2023-05-29T08:22:27;19.70;65.60
17452;DHT22;8843;48.838;9.324;2023-05-29T08:24:54;19.80;65.20
17452;DHT22;8843;48.838;9.324;2023-05-29T08:27:21;19.80;66.10
17452;DHT22;8843;48.838;9.324;2023-05-29T08:29:48;19.90;65.70
17452;DHT22;8843;48.838;9.324;2023-05-29T08:32:15;19.90;65.90
17452;DHT22;8843;48.838;9.324;2023-05-29T08:34:42;20.00;66.10
17452;DHT22;8843;48.838;9.324;2023-05-29T08:37:12;20.10;65.90
17452;DHT22;8843;48.838;9.324;2023-05-29T08:39:39;20.30;65.50
17452;DHT22;8843;48.838;9.324;2023-05-29T08:42:10;20.40;65.40
17452;DHT22;8843;48.838;9.324;2023-05-29T08:44:40;20.50;64.90
17452;DHT22;8843;48.838;9.324;2023-05-29T08:47:07;20.50;65.30
17452;DHT22;8843;48.838;9.324;2023-05-29T08:49:41;20.60;65.10
17452;DHT22;8843;48.838;9.324;2023-05-29T08:52:11;20.70;65.10
17452;DHT22;8843;48.838;9.324;2023-05-29T08:54:40;20.80;64.40
17452;DHT22;8843;48.838;9.324;2023-05-29T08:57:07;20.80;64.10
17452;DHT22;8843;48.838;9.324;2023-05-29T08:59:35;20.90;64.40
17452;DHT22;8843;48.838;9.324;2023-05-29T09:02:03;21.00;63.30
17452;DHT22;8843;48.838;9.324;2023-05-29T09:04:31;21.10;63.90
17452;DHT22;8843;48.838;9.324;2023-05-29T09:06:58;21.00;64.10
17452;DHT22;8843;48.838;9.324;2023-05-29T09:09:25;21.40;64.90
17452;DHT22;8843;48.838;9.324;2023-05-29T09:11:55;21.50;63.80
17452;DHT22;8843;48.838;9.324;2023-05-29T09:14:35;21.60;63.90
17452;DHT22;8843;48.838;9.324;2023-05-29T09:17:04;21.60;62.70
17452;DHT22;8843;48.838;9.324;2023-05-29T09:19:31;21.40;62.90
17452;DHT22;8843;48.838;9.324;2023-05-29T09:22:02;21.80;63.00
17452;DHT22;8843;48.838;9.324;2023-05-29T09:24:29;21.80;62.10
17452;DHT22;8843;48.838;9.324;2023-05-29T09:26:59;22.00;62.00
17452;DHT22;8843;48.838;9.324;2023-05-29T09:29:26;22.10;61.10
17452;DHT22;8843;48.838;9.324;2023-05-29T09:31:53;22.40;61.60
17452;DHT22;8843;48.838;9.324;2023-05-29T09:34:23;22.50;60.50
17452;DHT22;8843;48.838;9.324;2023-05-29T09:36:50;22.50;59.70
17452;DHT22;8843;48.838;9.324;2023-05-29T09:39:18;22.40;60.70
17452;DHT22;8843;48.838;9.324;2023-05-29T09:41:45;22.50;59.90
17452;DHT22;8843;48.838;9.324;2023-05-29T09:44:15;22.60;59.60
17452;DHT22;8843;48.838;9.324;2023-05-29T09:46:42;22.70;59.10
17452;DHT22;8843;48.838;9.324;2023-05-29T09:49:13;22.70;58.60
17452;DHT22;8843;48.838;9.324;2023-05-29T09:51:42;22.90;59.00
17452;DHT22;8843;48.838;9.324;2023-05-29T09:54:14;23.20;58.40
17452;DHT22;8843;48.838;9.324;2023-05-29T09:56:42;23.40;57.60
17452;DHT22;8843;48.838;9.324;2023-05-29T09:59:11;22.90;57.60
17452;DHT22;8843;48.838;9.324;2023-05-29T10:01:42;22.90;58.20
17452;DHT22;8843;48.838;9.324;2023-05-29T10:04:10;22.80;58.70
17452;DHT22;8843;48.838;9.324;2023-05-29T10:06:40;23.50;57.40
17452;DHT22;8843;48.838;9.324;2023-05-29T10:09:10;23.20;56.90
17452;DHT22;8843;48.838;9.324;2023-05-29T10:11:41;23.40;56.90
17452;DHT22;8843;48.838;9.324;2023-05-29T10:14:13;23.50;56.50
17452;DHT22;8843;48.838;9.324;2023-05-29T10:16:44;23.30;57.00
17452;DHT22;8843;48.838;9.324;2023-05-29T10:19:18;22.90;57.00
17452;DHT22;8843;48.838;9.324;2023-05-29T10:21:45;23.50;56.90
17452;DHT22;8843;48.838;9.324;2023-05-29T10:24:14;23.90;56.20
17452;DHT22;8843;48.838;9.324;2023-05-29T10:26:43;24.20;55.90
17452;DHT22;8843;48.838;9.324;2023-05-29T10:29:18;24.20;55.20
17452;DHT22;8843;48.838;9.324;2023-05-29T10:31:58;24.10;55.30
17452;DHT22;8843;48.838;9.324;2023-05-29T10:34:33;24.50;54.80
17452;DHT22;8843;48.838;9.324;2023-05-29T10:37:08;24.20;55.00
17452;DHT22;8843;48.838;9.324;2023-05-29T10:39:36;24.50;54.90
17452;DHT22;8843;48.838;9.324;2023-05-29T10:42:45;24.60;53.90
17452;DHT22;8843;48.838;9.324;2023-05-29T10:48:40;24.90;54.00
17452;DHT22;8843;48.838;9.324;2023-05-29T10:51:08;25.00;53.50
17452;DHT22;8843;48.838;9.324;2023-05-29T10:53:35;24.70;53.70
17452;DHT22;8843;48.838;9.324;2023-05-29T10:56:08;24.80;53.50
17452;DHT22;8843;48.838;9.324;2023-05-29T10:58:37;24.80;53.40
17452;DHT22;8843;48.838;9.324;2023-05-29T11:01:08;24.90;53.80
17452;DHT22;8843;48.838;9.324;2023-05-29T11:03:35;24.90;53.30
17452;DHT22;8843;48.838;9.324;2023-05-29T11:06:04;25.30;52.80
17452;DHT22;8843;48.838;9.324;2023-05-29T11:08:33;25.20;52.70
17452;DHT22;8843;48.838;9.324;2023-05-29T11:11:02;25.10;53.00
17452;DHT22;8843;48.838;9.324;2023-05-29T11:13:33;24.90;53.20
17452;DHT22;8843;48.838;9.324;2023-05-29T11:16:13;25.00;53.70
17452;DHT22;8843;48.838;9.324;2023-05-29T11:18:42;25.60;52.30
17452;DHT22;8843;48.838;9.324;2023-05-29T11:21:30;25.60;52.00
17452;DHT22;8843;48.838;9.324;2023-05-29T11:24:00;25.40;52.20
17452;DHT22;8843;48.838;9.324;2023-05-29T11:26:29;25.50;51.80
17452;DHT22;8843;48.838;9.324;2023-05-29T11:28:58;26.00;49.60
17452;DHT22;8843;48.838;9.324;2023-05-29T11:31:26;25.70;50.20
17452;DHT22;8843;48.838;9.324;2023-05-29T11:33:55;25.60;51.20
17452;DHT22;8843;48.838;9.324;2023-05-29T11:36:26;25.90;50.10
17452;DHT22;8843;48.838;9.324;2023-05-29T11:38:54;26.10;49.90
17452;DHT22;8843;48.838;9.324;2023-05-29T11:41:20;25.90;50.50
17452;DHT22;8843;48.838;9.324;2023-05-29T11:43:56;25.90;50.40
17452;DHT22;8843;48.838;9.324;2023-05-29T11:46:24;25.90;50.30
17452;DHT22;8843;48.838;9.324;2023-05-29T11:48:52;25.90;50.00
17452;DHT22;8843;48.838;9.324;2023-05-29T11:51:19;26.30;49.60
17452;DHT22;8843;48.838;9.324;2023-05-29T11:53:48;25.40;50.50
17452;DHT22;8843;48.838;9.324;2023-05-29T11:56:18;25.50;50.20
17452;DHT22;8843;48.838;9.324;2023-05-29T11:58:46;26.00;48.80
17452;DHT22;8843;48.838;9.324;2023-05-29T12:01:16;26.40;47.50
17452;DHT22;8843;48.838;9.324;2023-05-29T12:03:44;26.50;47.70
17452;DHT22;8843;48.838;9.324;2023-05-29T12:06:12;25.40;50.50
17452;DHT22;8843;48.838;9.324;2023-05-29T12:08:39;25.70;48.80
17452;DHT22;8843;48.838;9.324;2023-05-29T12:11:08;25.60;49.90
17452;DHT22;8843;48.838;9.324;2023-05-29T12:13:35;26.30;48.10
17452;DHT22;8843;48.838;9.324;2023-05-29T12:16:04;26.50;47.90
17452;DHT22;8843;48.838;9.324;2023-05-29T12:18:32;26.50;48.10
17452;DHT22;8843;48.838;9.324;2023-05-29T12:21:00;26.20;46.70
17452;DHT22;8843;48.838;9.324;2023-05-29T12:23:28;26.10;48.60
17452;DHT22;8843;48.838;9.324;2023-05-29T12:25:55;26.20;47.40
17452;DHT22;8843;48.838;9.324;2023-05-29T12:28:25;26.50;46.40
17452;DHT22;8843;48.838;9.324;2023-05-29T12:30:58;26.60;46.40
17452;DHT22;8843;48.838;9.324;2023-05-29T12:33:27;26.10;46.70
17452;DHT22;8843;48.838;9.324;2023-05-29T12:35:54;25.80;48.60
17452;DHT22;8843;48.838;9.324;2023-05-29T12:38:22;25.90;47.80
17452;DHT22;8843;48.838;9.324;2023-05-29T12:40:49;26.00;47.20
17452;DHT22;8843;48.838;9.324;2023-05-29T12:43:17;25.90;47.70
17452;DHT22;8843;48.838;9.324;2023-05-29T12:45:46;26.50;45.80
17452;DHT22;8843;48.838;9.324;2023-05-29T12:48:12;26.60;45.50
17452;DHT22;8843;48.838;9.324;2023-05-29T12:50:40;26.00;47.40
17452;DHT22;8843;48.838;9.324;2023-05-29T12:53:08;26.00;48.70
17452;DHT22;8843;48.838;9.324;2023-05-29T12:55:36;26.20;46.20
17452;DHT22;8843;48.838;9.324;2023-05-29T12:58:04;26.60;45.50
17452;DHT22;8843;48.838;9.324;2023-05-29T13:00:32;26.80;45.40
17452;DHT22;8843;48.838;9.324;2023-05-29T13:03:01;26.90;45.80
17452;DHT22;8843;48.838;9.324;2023-05-29T13:05:28;27.10;44.60
17452;DHT22;8843;48.838;9.324;2023-05-29T13:07:55;26.90;44.50
17452;DHT22;8843;48.838;9.324;2023-05-29T13:10:24;26.90;46.40
17452;DHT22;8843;48.838;9.324;2023-05-29T13:12:52;26.60;46.10
17452;DHT22;8843;48.838;9.324;2023-05-29T13:15:21;26.60;45.10
17452;DHT22;8843;48.838;9.324;2023-05-29T13:17:48;26.80;44.90
17452;DHT22;8843;48.838;9.324;2023-05-29T13:20:17;26.50;46.10
17452;DHT22;8843;48.838;9.324;2023-05-29T13:22:45;26.50;46.20
17452;DHT22;8843;48.838;9.324;2023-05-29T13:25:13;26.10;47.00
17452;DHT22;8843;48.838;9.324;2023-05-29T13:27:41;26.40;45.60
17452;DHT22;8843;48.838;9.324;2023-05-29T13:30:09;26.80;45.10
17452;DHT22;8843;48.838;9.324;2023-05-29T13:32:36;26.50;47.00
17452;DHT22;8843;48.838;9.324;2023-05-29T13:35:04;26.30;46.40
17452;DHT22;8843;48.838;9.324;2023-05-29T13:37:32;26.00;46.20
17452;DHT22;8843;48.838;9.324;2023-05-29T13:39:59;26.10;46.60
17452;DHT22;8843;48.838;9.324;2023-05-29T13:42:26;25.90;46.60
17452;DHT22;8843;48.838;9.324;2023-05-29T13:44:53;25.80;47.10
17452;DHT22;8843;48.838;9.324;2023-05-29T13:47:20;25.70;46.40
17452;DHT22;8843;48.838;9.324;2023-05-29T13:49:47;26.00;46.70
17452;DHT22;8843;48.838;9.324;2023-05-29T13:52:14;26.00;45.90
17452;DHT22;8843;48.838;9.324;2023-05-29T13:54:43;25.80;47.10
17452;DHT22;8843;48.838;9.324;2023-05-29T13:57:10;26.00;46.00
17452;DHT22;8843;48.838;9.324;2023-05-29T13:59:37;26.10;46.60
17452;DHT22;8843;48.838;9.324;2023-05-29T14:02:04;26.10;46.20
17452;DHT22;8843;48.838;9.324;2023-05-29T14:04:31;26.30;44.40
17452;DHT22;8843;48.838;9.324;2023-05-29T14:06:58;26.40;44.50
17452;DHT22;8843;48.838;9.324;2023-05-29T14:09:25;26.10;46.00
17452;DHT22;8843;48.838;9.324;2023-05-29T14:11:58;25.90;46.90
17452;DHT22;8843;48.838;9.324;2023-05-29T14:14:26;25.90;47.10
17452;DHT22;8843;48.838;9.324;2023-05-29T14:16:54;25.80;45.60
17452;DHT22;8843;48.838;9.324;2023-05-29T14:19:22;26.10;44.70
17452;DHT22;8843;48.838;9.324;2023-05-29T14:21:49;26.40;44.70
17452;DHT22;8843;48.838;9.324;2023-05-29T14:24:16;26.20;45.90
17452;DHT22;8843;48.838;9.324;2023-05-29T14:26:43;25.90;46.70
17452;DHT22;8843;48.838;9.324;2023-05-29T14:29:14;26.10;45.40
17452;DHT22;8843;48.838;9.324;2023-05-29T14:31:41;26.00;46.00
17452;DHT22;8843;48.838;9.324;2023-05-29T14:34:08;25.80;46.50
17452;DHT22;8843;48.838;9.324;2023-05-29T14:36:35;25.90;46.50
17452;DHT22;8843;48.838;9.324;2023-05-29T14:39:02;25.90;46.70
17452;DHT22;8843;48.838;9.324;2023-05-29T14:41:29;25.80;45.90
17452;DHT22;8843;48.838;9.324;2023-05-29T14:43:56;25.90;46.90
17452;DHT22;8843;48.838;9.324;2023-05-29T14:46:25;25.60;47.20
17452;DHT22;8843;48.838;9.324;2023-05-29T14:48:55;25.70;47.10
17452;DHT22;8843;48.838;9.324;2023-05-29T14:51:22;25.80;46.10
17452;DHT22;8843;48.838;9.324;2023-05-29T14:53:49;25.80;48.10
17452;DHT22;8843;48.838;9.324;2023-05-29T14:56:16;25.70;46.90
17452;DHT22;8843;48.838;9.324;2023-05-29T14:58:44;25.80;46.40
17452;DHT22;8843;48.838;9.324;2023-05-29T15:01:11;25.90;46.30
17452;DHT22;8843;48.838;9.324;2023-05-29T15:03:39;25.80;46.30
17452;DHT22;8843;48.838;9.324;2023-05-29T15:06:08;25.60;48.80
17452;DHT22;8843;48.838;9.324;2023-05-29T15:08:35;25.70;46.60
17452;DHT22;8843;48.838;9.324;2023-05-29T15:11:02;25.50;47.30
17452;DHT22;8843;48.838;9.324;2023-05-29T15:13:29;25.60;46.50
17452;DHT22;8843;48.838;9.324;2023-05-29T15:15:56;25.30;49.30
17452;DHT22;8843;48.838;9.324;2023-05-29T15:18:25;25.20;47.70
17452;DHT22;8843;48.838;9.324;2023-05-29T15:20:53;24.90;48.40
17452;DHT22;8843;48.838;9.324;2023-05-29T15:23:21;24.80;48.40
17452;DHT22;8843;48.838;9.324;2023-05-29T15:25:48;25.00;47.50
17452;DHT22;8843;48.838;9.324;2023-05-29T15:28:15;24.80;48.30
17452;DHT22;8843;48.838;9.324;2023-05-29T15:30:42;24.70;48.20
17452;DHT22;8843;48.838;9.324;2023-05-29T15:33:09;25.00;48.20
17452;DHT22;8843;48.838;9.324;2023-05-29T15:35:36;24.70;48.40
17452;DHT22;8843;48.838;9.324;2023-05-29T15:38:05;24.70;48.00
17452;DHT22;8843;48.838;9.324;2023-05-29T15:40:32;24.80;48.30
17452;DHT22;8843;48.838;9.324;2023-05-29T15:42:59;24.90;47.90
17452;DHT22;8843;48.838;9.324;2023-05-29T15:45:26;25.00;48.10
17452;DHT22;8843;48.838;9.324;2023-05-29T15:47:53;24.90;47.20
17452;DHT22;8843;48.838;9.324;2023-05-29T15:50:20;24.90;47.60
17452;DHT22;8843;48.838;9.324;2023-05-29T15:52:47;24.80;48.80
17452;DHT22;8843;48.838;9.324;2023-05-29T15:55:16;24.80;47.10